sensor_id;sensor_type;location;lat;lon;timestamp;P1;durP1;ratioP1;P2;durP2;ratioP2
2021;SDS011;1015;49.756;6.994;2022-08-19T00:00:35;25.80;;;22.20;;
2021;SDS011;1015;49.756;6.994;2022-08-19T00:03:02;24.13;;;21.53;;
2021;SDS011;1015;49.756;6.994;2022-08-19T00:05:29;24.00;;;21.50;;
2021;SDS011;1015;49.756;6.994;2022-08-19T00:07:59;21.77;;;18.83;;
2021;SDS011;1015;49.756;6.994;2022-08-19T00:10:26;18.70;;;16.80;;
2021;SDS011;1015;49.756;6.994;2022-08-19T00:12:53;18.67;;;16.70;;
2021;SDS011;1015;49.756;6.994;2022-08-19T00:15:20;15.97;;;14.47;;
2021;SDS011;1015;49.756;6.994;2022-08-19T00:17:48;16.93;;;15.23;;
2021;SDS011;1015;49.756;6.994;2022-08-19T00:20:16;16.00;;;14.50;;
2021;SDS011;1015;49.756;6.994;2022-08-19T00:22:44;14.90;;;13.50;;
2021;SDS011;1015;49.756;6.994;2022-08-19T00:25:13;15.83;;;14.33;;
2021;SDS011;1015;49.756;6.994;2022-08-19T00:27:41;20.43;;;18.37;;
2021;SDS011;1015;49.756;6.994;2022-08-19T00:30:08;23.53;;;21.23;;
2021;SDS011;1015;49.756;6.994;2022-08-19T00:32:36;24.27;;;21.77;;
2021;SDS011;1015;49.756;6.994;2022-08-19T00:35:05;23.93;;;21.43;;
2021;SDS011;1015;49.756;6.994;2022-08-19T00:37:32;24.73;;;22.10;;
2021;SDS011;1015;49.756;6.994;2022-08-19T00:40:00;24.57;;;21.97;;
2021;SDS011;1015;49.756;6.994;2022-08-19T00:42:30;24.73;;;21.60;;
2021;SDS011;1015;49.756;6.994;2022-08-19T00:44:57;24.27;;;21.77;;
2021;SDS011;1015;49.756;6.994;2022-08-19T00:47:24;23.77;;;21.23;;
2021;SDS011;1015;49.756;6.994;2022-08-19T00:49:52;25.10;;;22.33;;
2021;SDS011;1015;49.756;6.994;2022-08-19T00:52:23;25.33;;;22.60;;
2021;SDS011;1015;49.756;6.994;2022-08-19T00:54:53;25.40;;;21.80;;
2021;SDS011;1015;49.756;6.994;2022-08-19T00:57:23;24.27;;;21.67;;
2021;SDS011;1015;49.756;6.994;2022-08-19T00:59:55;25.80;;;21.33;;
2021;SDS011;1015;49.756;6.994;2022-08-19T01:02:24;25.80;;;22.47;;
2021;SDS011;1015;49.756;6.994;2022-08-19T01:04:51;24.67;;;22.00;;
2021;SDS011;1015;49.756;6.994;2022-08-19T01:07:19;25.00;;;20.60;;
2021;SDS011;1015;49.756;6.994;2022-08-19T01:09:46;24.60;;;21.27;;
2021;SDS011;1015;49.756;6.994;2022-08-19T01:12:13;24.53;;;21.87;;
2021;SDS011;1015;49.756;6.994;2022-08-19T01:14:41;25.00;;;21.70;;
2021;SDS011;1015;49.756;6.994;2022-08-19T01:17:10;23.43;;;20.90;;
2021;SDS011;1015;49.756;6.994;2022-08-19T01:19:39;21.90;;;19.70;;
2021;SDS011;1015;49.756;6.994;2022-08-19T01:22:08;24.57;;;20.47;;
2021;SDS011;1015;49.756;6.994;2022-08-19T01:24:42;23.03;;;20.60;;
2021;SDS011;1015;49.756;6.994;2022-08-19T01:27:09;24.33;;;21.60;;
2021;SDS011;1015;49.756;6.994;2022-08-19T01:29:37;24.00;;;21.33;;
2021;SDS011;1015;49.756;6.994;2022-08-19T01:32:05;23.80;;;21.20;;
2021;SDS011;1015;49.756;6.994;2022-08-19T01:34:33;24.83;;;22.23;;
2021;SDS011;1015;49.756;6.994;2022-08-19T01:37:00;24.03;;;21.43;;
2021;SDS011;1015;49.756;6.994;2022-08-19T01:39:36;27.37;;;22.33;;
2021;SDS011;1015;49.756;6.994;2022-08-19T01:42:05;24.90;;;22.20;;
2021;SDS011;1015;49.756;6.994;2022-08-19T01:44:36;25.63;;;22.10;;
2021;SDS011;1015;49.756;6.994;2022-08-19T01:47:03;26.73;;;23.07;;
2021;SDS011;1015;49.756;6.994;2022-08-19T01:49:31;27.10;;;23.23;;
2021;SDS011;1015;49.756;6.994;2022-08-19T01:51:59;25.90;;;22.57;;
2021;SDS011;1015;49.756;6.994;2022-08-19T01:54:26;24.93;;;22.23;;
2021;SDS011;1015;49.756;6.994;2022-08-19T01:56:55;25.80;;;23.00;;
2021;SDS011;1015;49.756;6.994;2022-08-19T01:59:27;25.83;;;22.73;;
2021;SDS011;1015;49.756;6.994;2022-08-19T02:01:54;24.40;;;21.80;;
2021;SDS011;1015;49.756;6.994;2022-08-19T02:04:21;25.50;;;22.43;;
2021;SDS011;1015;49.756;6.994;2022-08-19T02:06:48;28.70;;;24.07;;
2021;SDS011;1015;49.756;6.994;2022-08-19T02:09:15;26.67;;;23.07;;
2021;SDS011;1015;49.756;6.994;2022-08-19T02:11:42;25.50;;;22.73;;
2021;SDS011;1015;49.756;6.994;2022-08-19T02:14:09;28.57;;;23.20;;
2021;SDS011;1015;49.756;6.994;2022-08-19T02:16:37;26.47;;;22.47;;
2021;SDS011;1015;49.756;6.994;2022-08-19T02:19:05;26.83;;;22.80;;
2021;SDS011;1015;49.756;6.994;2022-08-19T02:21:32;26.20;;;23.50;;
2021;SDS011;1015;49.756;6.994;2022-08-19T02:24:00;30.57;;;23.97;;
2021;SDS011;1015;49.756;6.994;2022-08-19T02:26:27;27.70;;;24.30;;
2021;SDS011;1015;49.756;6.994;2022-08-19T02:28:54;28.60;;;23.10;;
2021;SDS011;1015;49.756;6.994;2022-08-19T02:31:23;30.10;;;25.33;;
2021;SDS011;1015;49.756;6.994;2022-08-19T02:33:52;30.00;;;24.90;;
2021;SDS011;1015;49.756;6.994;2022-08-19T02:36:20;27.67;;;24.47;;
2021;SDS011;1015;49.756;6.994;2022-08-19T02:38:48;28.93;;;24.27;;
2021;SDS011;1015;49.756;6.994;2022-08-19T02:41:15;28.50;;;22.93;;
2021;SDS011;1015;49.756;6.994;2022-08-19T02:43:43;30.47;;;23.57;;
2021;SDS011;1015;49.756;6.994;2022-08-19T02:46:12;30.80;;;24.00;;
2021;SDS011;1015;49.756;6.994;2022-08-19T02:48:42;28.47;;;24.07;;
2021;SDS011;1015;49.756;6.994;2022-08-19T02:51:16;27.37;;;21.73;;
2021;SDS011;1015;49.756;6.994;2022-08-19T02:53:44;26.20;;;22.73;;
2021;SDS011;1015;49.756;6.994;2022-08-19T02:56:11;23.00;;;20.50;;
2021;SDS011;1015;49.756;6.994;2022-08-19T02:58:38;24.60;;;22.00;;
2021;SDS011;1015;49.756;6.994;2022-08-19T03:01:05;23.73;;;20.47;;
2021;SDS011;1015;49.756;6.994;2022-08-19T03:03:32;21.90;;;19.30;;
2021;SDS011;1015;49.756;6.994;2022-08-19T03:06:03;24.97;;;20.07;;
2021;SDS011;1015;49.756;6.994;2022-08-19T03:08:36;24.30;;;20.87;;
2021;SDS011;1015;49.756;6.994;2022-08-19T03:11:04;23.97;;;19.70;;
2021;SDS011;1015;49.756;6.994;2022-08-19T03:13:32;24.17;;;21.30;;
2021;SDS011;1015;49.756;6.994;2022-08-19T03:15:59;22.93;;;20.50;;
2021;SDS011;1015;49.756;6.994;2022-08-19T03:18:25;26.83;;;22.23;;
2021;SDS011;1015;49.756;6.994;2022-08-19T03:20:53;26.63;;;21.60;;
2021;SDS011;1015;49.756;6.994;2022-08-19T03:23:20;25.00;;;21.27;;
2021;SDS011;1015;49.756;6.994;2022-08-19T03:25:49;24.73;;;21.50;;
2021;SDS011;1015;49.756;6.994;2022-08-19T03:28:19;25.27;;;20.67;;
2021;SDS011;1015;49.756;6.994;2022-08-19T03:30:57;25.80;;;21.60;;
2021;SDS011;1015;49.756;6.994;2022-08-19T03:33:25;28.73;;;23.70;;
2021;SDS011;1015;49.756;6.994;2022-08-19T03:35:59;27.00;;;21.77;;
2021;SDS011;1015;49.756;6.994;2022-08-19T03:38:32;26.73;;;21.07;;
2021;SDS011;1015;49.756;6.994;2022-08-19T03:41:03;28.17;;;22.33;;
2021;SDS011;1015;49.756;6.994;2022-08-19T03:43:33;26.53;;;22.73;;
2021;SDS011;1015;49.756;6.994;2022-08-19T03:46:01;26.60;;;22.13;;
2021;SDS011;1015;49.756;6.994;2022-08-19T03:48:30;27.53;;;23.37;;
2021;SDS011;1015;49.756;6.994;2022-08-19T03:50:58;31.97;;;24.67;;
2021;SDS011;1015;49.756;6.994;2022-08-19T03:53:25;29.67;;;23.90;;
2021;SDS011;1015;49.756;6.994;2022-08-19T03:55:53;32.00;;;25.70;;
2021;SDS011;1015;49.756;6.994;2022-08-19T03:58:22;28.13;;;22.93;;
2021;SDS011;1015;49.756;6.994;2022-08-19T04:00:49;33.60;;;24.23;;
2021;SDS011;1015;49.756;6.994;2022-08-19T04:03:16;29.83;;;24.20;;
2021;SDS011;1015;49.756;6.994;2022-08-19T04:05:45;25.20;;;22.07;;
2021;SDS011;1015;49.756;6.994;2022-08-19T04:08:13;28.47;;;23.70;;
2021;SDS011;1015;49.756;6.994;2022-08-19T04:10:46;26.30;;;23.07;;
2021;SDS011;1015;49.756;6.994;2022-08-19T04:13:13;26.37;;;22.60;;
2021;SDS011;1015;49.756;6.994;2022-08-19T04:15:42;24.47;;;21.87;;
2021;SDS011;1015;49.756;6.994;2022-08-19T04:18:11;23.40;;;20.80;;
2021;SDS011;1015;49.756;6.994;2022-08-19T04:20:39;25.40;;;22.53;;
2021;SDS011;1015;49.756;6.994;2022-08-19T04:23:07;24.73;;;22.03;;
2021;SDS011;1015;49.756;6.994;2022-08-19T04:25:35;27.03;;;22.53;;
2021;SDS011;1015;49.756;6.994;2022-08-19T04:28:03;25.70;;;22.93;;
2021;SDS011;1015;49.756;6.994;2022-08-19T04:30:36;24.47;;;21.87;;
2021;SDS011;1015;49.756;6.994;2022-08-19T04:33:05;28.63;;;23.10;;
2021;SDS011;1015;49.756;6.994;2022-08-19T04:35:37;26.20;;;21.27;;
2021;SDS011;1015;49.756;6.994;2022-08-19T04:38:05;26.90;;;22.87;;
2021;SDS011;1015;49.756;6.994;2022-08-19T04:40:32;29.13;;;21.87;;
2021;SDS011;1015;49.756;6.994;2022-08-19T04:43:17;27.20;;;23.40;;
2021;SDS011;1015;49.756;6.994;2022-08-19T04:45:44;24.50;;;21.50;;
2021;SDS011;1015;49.756;6.994;2022-08-19T04:48:13;26.97;;;22.63;;
2021;SDS011;1015;49.756;6.994;2022-08-19T04:50:40;28.20;;;21.80;;
2021;SDS011;1015;49.756;6.994;2022-08-19T04:53:08;28.90;;;21.90;;
2021;SDS011;1015;49.756;6.994;2022-08-19T04:55:38;27.60;;;22.70;;
2021;SDS011;1015;49.756;6.994;2022-08-19T04:58:06;25.73;;;22.00;;
2021;SDS011;1015;49.756;6.994;2022-08-19T05:00:33;24.10;;;21.27;;
2021;SDS011;1015;49.756;6.994;2022-08-19T05:03:03;22.50;;;20.10;;
2021;SDS011;1015;49.756;6.994;2022-08-19T05:05:31;22.60;;;20.20;;
2021;SDS011;1015;49.756;6.994;2022-08-19T05:07:58;27.20;;;22.47;;
2021;SDS011;1015;49.756;6.994;2022-08-19T05:10:25;22.93;;;20.20;;
2021;SDS011;1015;49.756;6.994;2022-08-19T05:12:52;25.23;;;21.60;;
2021;SDS011;1015;49.756;6.994;2022-08-19T05:15:19;23.53;;;21.00;;
2021;SDS011;1015;49.756;6.994;2022-08-19T05:17:46;24.77;;;22.10;;
2021;SDS011;1015;49.756;6.994;2022-08-19T05:20:27;24.47;;;21.77;;
2021;SDS011;1015;49.756;6.994;2022-08-19T05:23:13;24.07;;;21.60;;
2021;SDS011;1015;49.756;6.994;2022-08-19T05:25:40;23.23;;;20.80;;
2021;SDS011;1015;49.756;6.994;2022-08-19T05:28:08;23.20;;;20.77;;
2021;SDS011;1015;49.756;6.994;2022-08-19T05:30:35;21.77;;;19.43;;
2021;SDS011;1015;49.756;6.994;2022-08-19T05:33:02;22.40;;;20.03;;
2021;SDS011;1015;49.756;6.994;2022-08-19T05:35:29;19.97;;;17.87;;
2021;SDS011;1015;49.756;6.994;2022-08-19T05:37:56;19.70;;;17.70;;
2021;SDS011;1015;49.756;6.994;2022-08-19T05:40:24;19.90;;;17.87;;
2021;SDS011;1015;49.756;6.994;2022-08-19T05:42:51;17.93;;;16.13;;
2021;SDS011;1015;49.756;6.994;2022-08-19T05:45:18;16.60;;;15.00;;
2021;SDS011;1015;49.756;6.994;2022-08-19T05:47:46;17.20;;;15.60;;
2021;SDS011;1015;49.756;6.994;2022-08-19T05:50:13;16.67;;;15.20;;
2021;SDS011;1015;49.756;6.994;2022-08-19T05:52:42;15.10;;;13.80;;
2021;SDS011;1015;49.756;6.994;2022-08-19T05:55:10;15.43;;;13.93;;
2021;SDS011;1015;49.756;6.994;2022-08-19T05:57:39;15.47;;;14.00;;
2021;SDS011;1015;49.756;6.994;2022-08-19T06:00:06;14.77;;;13.47;;
2021;SDS011;1015;49.756;6.994;2022-08-19T06:02:35;15.53;;;14.20;;
2021;SDS011;1015;49.756;6.994;2022-08-19T06:05:03;14.50;;;13.20;;
2021;SDS011;1015;49.756;6.994;2022-08-19T06:07:34;13.40;;;12.20;;
2021;SDS011;1015;49.756;6.994;2022-08-19T06:10:01;13.40;;;12.20;;
2021;SDS011;1015;49.756;6.994;2022-08-19T06:12:28;13.30;;;12.10;;
2021;SDS011;1015;49.756;6.994;2022-08-19T06:15:01;13.70;;;12.50;;
2021;SDS011;1015;49.756;6.994;2022-08-19T06:17:30;12.73;;;11.67;;
2021;SDS011;1015;49.756;6.994;2022-08-19T06:19:59;13.67;;;12.57;;
2021;SDS011;1015;49.756;6.994;2022-08-19T06:22:27;14.27;;;12.93;;
2021;SDS011;1015;49.756;6.994;2022-08-19T06:24:54;13.23;;;12.03;;
2021;SDS011;1015;49.756;6.994;2022-08-19T06:27:22;14.70;;;13.50;;
2021;SDS011;1015;49.756;6.994;2022-08-19T06:29:49;13.47;;;12.37;;
2021;SDS011;1015;49.756;6.994;2022-08-19T06:32:17;14.80;;;13.53;;
2021;SDS011;1015;49.756;6.994;2022-08-19T06:34:44;14.87;;;13.67;;
2021;SDS011;1015;49.756;6.994;2022-08-19T06:37:12;15.07;;;13.70;;
2021;SDS011;1015;49.756;6.994;2022-08-19T06:39:40;14.73;;;13.43;;
2021;SDS011;1015;49.756;6.994;2022-08-19T06:42:08;15.80;;;14.30;;
2021;SDS011;1015;49.756;6.994;2022-08-19T06:44:41;16.40;;;14.90;;
2021;SDS011;1015;49.756;6.994;2022-08-19T06:47:10;16.13;;;14.73;;
2021;SDS011;1015;49.756;6.994;2022-08-19T06:49:40;17.50;;;15.97;;
2021;SDS011;1015;49.756;6.994;2022-08-19T06:52:08;17.53;;;15.77;;
2021;SDS011;1015;49.756;6.994;2022-08-19T06:54:36;18.20;;;16.50;;
2021;SDS011;1015;49.756;6.994;2022-08-19T06:57:04;17.50;;;16.00;;
2021;SDS011;1015;49.756;6.994;2022-08-19T06:59:34;16.83;;;15.33;;
2021;SDS011;1015;49.756;6.994;2022-08-19T07:02:02;16.37;;;14.93;;
2021;SDS011;1015;49.756;6.994;2022-08-19T07:04:31;15.97;;;14.57;;
2021;SDS011;1015;49.756;6.994;2022-08-19T07:07:03;17.27;;;15.77;;
2021;SDS011;1015;49.756;6.994;2022-08-19T07:09:33;18.97;;;17.17;;
2021;SDS011;1015;49.756;6.994;2022-08-19T07:12:02;20.50;;;18.60;;
2021;SDS011;1015;49.756;6.994;2022-08-19T07:14:31;19.80;;;17.83;;
2021;SDS011;1015;49.756;6.994;2022-08-19T07:17:00;21.10;;;18.87;;
2021;SDS011;1015;49.756;6.994;2022-08-19T07:19:27;19.90;;;18.10;;
2021;SDS011;1015;49.756;6.994;2022-08-19T07:21:56;21.23;;;19.20;;
2021;SDS011;1015;49.756;6.994;2022-08-19T07:24:26;18.70;;;16.90;;
2021;SDS011;1015;49.756;6.994;2022-08-19T07:26:54;22.20;;;19.90;;
2021;SDS011;1015;49.756;6.994;2022-08-19T07:29:25;20.90;;;18.70;;
2021;SDS011;1015;49.756;6.994;2022-08-19T07:31:53;18.37;;;16.47;;
2021;SDS011;1015;49.756;6.994;2022-08-19T07:34:22;17.03;;;15.37;;
2021;SDS011;1015;49.756;6.994;2022-08-19T07:36:50;19.83;;;17.83;;
2021;SDS011;1015;49.756;6.994;2022-08-19T07:39:18;19.27;;;17.37;;
2021;SDS011;1015;49.756;6.994;2022-08-19T07:41:48;19.50;;;17.50;;
2021;SDS011;1015;49.756;6.994;2022-08-19T07:44:16;18.47;;;16.77;;
2021;SDS011;1015;49.756;6.994;2022-08-19T07:46:45;17.97;;;16.37;;
2021;SDS011;1015;49.756;6.994;2022-08-19T07:49:16;17.10;;;15.60;;
2021;SDS011;1015;49.756;6.994;2022-08-19T07:51:44;16.60;;;15.00;;
2021;SDS011;1015;49.756;6.994;2022-08-19T07:54:11;16.47;;;14.87;;
2021;SDS011;1015;49.756;6.994;2022-08-19T07:56:38;18.23;;;16.43;;
2021;SDS011;1015;49.756;6.994;2022-08-19T07:59:07;16.93;;;15.33;;
2021;SDS011;1015;49.756;6.994;2022-08-19T08:01:34;16.83;;;15.40;;
2021;SDS011;1015;49.756;6.994;2022-08-19T08:04:01;17.27;;;15.67;;
2021;SDS011;1015;49.756;6.994;2022-08-19T08:06:46;16.17;;;14.70;;
2021;SDS011;1015;49.756;6.994;2022-08-19T08:09:31;16.70;;;15.10;;
2021;SDS011;1015;49.756;6.994;2022-08-19T08:12:00;16.30;;;14.80;;
2021;SDS011;1015;49.756;6.994;2022-08-19T08:14:33;14.60;;;13.30;;
2021;SDS011;1015;49.756;6.994;2022-08-19T08:17:04;15.97;;;14.57;;
2021;SDS011;1015;49.756;6.994;2022-08-19T08:19:32;14.07;;;12.73;;
2021;SDS011;1015;49.756;6.994;2022-08-19T08:21:59;17.43;;;15.63;;
2021;SDS011;1015;49.756;6.994;2022-08-19T08:24:28;17.23;;;15.73;;
2021;SDS011;1015;49.756;6.994;2022-08-19T08:26:57;13.60;;;12.30;;
2021;SDS011;1015;49.756;6.994;2022-08-19T08:29:25;13.80;;;12.60;;
2021;SDS011;1015;49.756;6.994;2022-08-19T08:31:55;14.17;;;12.87;;
2021;SDS011;1015;49.756;6.994;2022-08-19T08:34:22;14.70;;;13.40;;
2021;SDS011;1015;49.756;6.994;2022-08-19T08:36:49;15.03;;;13.73;;
2021;SDS011;1015;49.756;6.994;2022-08-19T08:39:18;12.83;;;11.53;;
2021;SDS011;1015;49.756;6.994;2022-08-19T08:41:49;14.93;;;13.63;;
2021;SDS011;1015;49.756;6.994;2022-08-19T08:44:21;13.43;;;12.27;;
2021;SDS011;1015;49.756;6.994;2022-08-19T08:46:57;15.20;;;13.90;;
2021;SDS011;1015;49.756;6.994;2022-08-19T08:49:29;15.57;;;14.00;;
2021;SDS011;1015;49.756;6.994;2022-08-19T08:52:04;13.70;;;12.40;;
2021;SDS011;1015;49.756;6.994;2022-08-19T08:54:34;15.03;;;13.60;;
2021;SDS011;1015;49.756;6.994;2022-08-19T08:57:04;12.87;;;11.77;;
2021;SDS011;1015;49.756;6.994;2022-08-19T08:59:38;14.17;;;12.97;;
2021;SDS011;1015;49.756;6.994;2022-08-19T09:02:09;15.00;;;13.70;;
2021;SDS011;1015;49.756;6.994;2022-08-19T09:04:36;16.43;;;15.03;;
2021;SDS011;1015;49.756;6.994;2022-08-19T09:07:11;15.53;;;14.13;;
2021;SDS011;1015;49.756;6.994;2022-08-19T09:09:48;19.87;;;15.93;;
2021;SDS011;1015;49.756;6.994;2022-08-19T09:12:19;16.93;;;15.37;;
2021;SDS011;1015;49.756;6.994;2022-08-19T09:14:52;20.83;;;18.50;;
2021;SDS011;1015;49.756;6.994;2022-08-19T09:17:24;16.87;;;15.20;;
2021;SDS011;1015;49.756;6.994;2022-08-19T09:19:56;16.40;;;15.00;;
2021;SDS011;1015;49.756;6.994;2022-08-19T09:22:25;17.87;;;15.20;;
2021;SDS011;1015;49.756;6.994;2022-08-19T09:24:52;16.97;;;15.50;;
2021;SDS011;1015;49.756;6.994;2022-08-19T09:27:20;18.67;;;16.97;;
2021;SDS011;1015;49.756;6.994;2022-08-19T09:29:49;15.97;;;14.47;;
2021;SDS011;1015;49.756;6.994;2022-08-19T09:32:16;16.50;;;14.87;;
2021;SDS011;1015;49.756;6.994;2022-08-19T09:34:45;15.70;;;14.30;;
2021;SDS011;1015;49.756;6.994;2022-08-19T09:37:12;15.90;;;14.43;;
2021;SDS011;1015;49.756;6.994;2022-08-19T09:39:40;16.00;;;14.40;;
2021;SDS011;1015;49.756;6.994;2022-08-19T09:42:07;15.77;;;14.17;;
2021;SDS011;1015;49.756;6.994;2022-08-19T09:44:37;15.80;;;14.30;;
2021;SDS011;1015;49.756;6.994;2022-08-19T09:47:04;13.50;;;12.40;;
2021;SDS011;1015;49.756;6.994;2022-08-19T09:49:32;14.97;;;13.67;;
2021;SDS011;1015;49.756;6.994;2022-08-19T09:52:00;14.80;;;12.80;;
2021;SDS011;1015;49.756;6.994;2022-08-19T09:54:27;12.80;;;11.70;;
2021;SDS011;1015;49.756;6.994;2022-08-19T09:56:54;13.20;;;12.10;;
2021;SDS011;1015;49.756;6.994;2022-08-19T09:59:25;12.70;;;11.40;;
2021;SDS011;1015;49.756;6.994;2022-08-19T10:01:52;16.00;;;14.37;;
2021;SDS011;1015;49.756;6.994;2022-08-19T10:04:20;12.83;;;11.73;;
2021;SDS011;1015;49.756;6.994;2022-08-19T10:06:48;12.43;;;11.40;;
2021;SDS011;1015;49.756;6.994;2022-08-19T10:09:17;13.50;;;12.40;;
2021;SDS011;1015;49.756;6.994;2022-08-19T10:11:45;11.40;;;10.40;;
2021;SDS011;1015;49.756;6.994;2022-08-19T10:14:14;12.30;;;11.20;;
2021;SDS011;1015;49.756;6.994;2022-08-19T10:16:42;12.57;;;11.57;;
2021;SDS011;1015;49.756;6.994;2022-08-19T10:19:09;13.73;;;12.53;;
2021;SDS011;1015;49.756;6.994;2022-08-19T10:21:36;12.97;;;11.80;;
2021;SDS011;1015;49.756;6.994;2022-08-19T10:24:04;13.00;;;11.83;;
2021;SDS011;1015;49.756;6.994;2022-08-19T10:26:34;13.10;;;11.90;;
2021;SDS011;1015;49.756;6.994;2022-08-19T10:29:03;12.27;;;11.27;;
2021;SDS011;1015;49.756;6.994;2022-08-19T10:31:31;12.33;;;11.23;;
2021;SDS011;1015;49.756;6.994;2022-08-19T10:33:59;12.67;;;11.57;;
2021;SDS011;1015;49.756;6.994;2022-08-19T10:36:28;11.67;;;10.57;;
2021;SDS011;1015;49.756;6.994;2022-08-19T10:38:58;13.00;;;12.00;;
2021;SDS011;1015;49.756;6.994;2022-08-19T10:41:28;12.67;;;11.67;;
2021;SDS011;1015;49.756;6.994;2022-08-19T10:43:59;12.00;;;10.90;;
2021;SDS011;1015;49.756;6.994;2022-08-19T10:46:27;12.30;;;11.27;;
2021;SDS011;1015;49.756;6.994;2022-08-19T10:48:56;13.93;;;12.47;;
2021;SDS011;1015;49.756;6.994;2022-08-19T10:51:23;11.73;;;10.73;;
2021;SDS011;1015;49.756;6.994;2022-08-19T10:54:07;11.23;;;10.33;;
2021;SDS011;1015;49.756;6.994;2022-08-19T10:56:35;9.40;;;8.50;;
2021;SDS011;1015;49.756;6.994;2022-08-19T10:59:19;12.10;;;11.10;;
2021;SDS011;1015;49.756;6.994;2022-08-19T11:01:47;12.23;;;11.13;;
2021;SDS011;1015;49.756;6.994;2022-08-19T11:04:15;10.77;;;9.97;;
2021;SDS011;1015;49.756;6.994;2022-08-19T11:06:42;11.23;;;10.20;;
2021;SDS011;1015;49.756;6.994;2022-08-19T11:09:12;10.50;;;9.60;;
2021;SDS011;1015;49.756;6.994;2022-08-19T11:11:40;11.17;;;10.20;;
2021;SDS011;1015;49.756;6.994;2022-08-19T11:14:08;10.40;;;9.60;;
2021;SDS011;1015;49.756;6.994;2022-08-19T11:16:37;11.00;;;10.00;;
2021;SDS011;1015;49.756;6.994;2022-08-19T11:19:05;10.20;;;9.30;;
2021;SDS011;1015;49.756;6.994;2022-08-19T11:21:34;11.40;;;10.30;;
2021;SDS011;1015;49.756;6.994;2022-08-19T11:24:04;11.30;;;10.20;;
2021;SDS011;1015;49.756;6.994;2022-08-19T11:26:32;9.60;;;8.80;;
2021;SDS011;1015;49.756;6.994;2022-08-19T11:29:00;8.70;;;8.00;;
2021;SDS011;1015;49.756;6.994;2022-08-19T11:31:29;9.37;;;8.67;;
2021;SDS011;1015;49.756;6.994;2022-08-19T11:34:03;8.40;;;7.70;;
2021;SDS011;1015;49.756;6.994;2022-08-19T11:36:31;9.30;;;8.50;;
2021;SDS011;1015;49.756;6.994;2022-08-19T11:38:58;11.50;;;10.47;;
2021;SDS011;1015;49.756;6.994;2022-08-19T11:41:26;10.53;;;9.60;;
2021;SDS011;1015;49.756;6.994;2022-08-19T11:43:53;9.80;;;8.90;;
2021;SDS011;1015;49.756;6.994;2022-08-19T11:46:21;9.43;;;8.63;;
2021;SDS011;1015;49.756;6.994;2022-08-19T11:48:50;10.43;;;9.53;;
2021;SDS011;1015;49.756;6.994;2022-08-19T11:51:19;10.67;;;9.77;;
2021;SDS011;1015;49.756;6.994;2022-08-19T11:53:49;9.77;;;8.87;;
2021;SDS011;1015;49.756;6.994;2022-08-19T11:56:17;9.70;;;8.83;;
2021;SDS011;1015;49.756;6.994;2022-08-19T11:58:45;9.30;;;8.47;;
2021;SDS011;1015;49.756;6.994;2022-08-19T12:01:14;11.23;;;10.23;;
2021;SDS011;1015;49.756;6.994;2022-08-19T12:03:42;9.77;;;9.07;;
2021;SDS011;1015;49.756;6.994;2022-08-19T12:06:11;9.30;;;8.60;;
2021;SDS011;1015;49.756;6.994;2022-08-19T12:08:41;8.87;;;8.17;;
2021;SDS011;1015;49.756;6.994;2022-08-19T12:11:08;12.37;;;8.50;;
2021;SDS011;1015;49.756;6.994;2022-08-19T12:13:36;11.10;;;10.20;;
2021;SDS011;1015;49.756;6.994;2022-08-19T12:16:06;10.63;;;9.70;;
2021;SDS011;1015;49.756;6.994;2022-08-19T12:18:35;11.63;;;10.73;;
2021;SDS011;1015;49.756;6.994;2022-08-19T12:21:02;10.90;;;10.00;;
2021;SDS011;1015;49.756;6.994;2022-08-19T12:23:29;10.50;;;9.60;;
2021;SDS011;1015;49.756;6.994;2022-08-19T12:25:58;9.87;;;9.07;;
2021;SDS011;1015;49.756;6.994;2022-08-19T12:28:25;9.87;;;9.00;;
2021;SDS011;1015;49.756;6.994;2022-08-19T12:30:52;10.57;;;9.67;;
2021;SDS011;1015;49.756;6.994;2022-08-19T12:33:19;9.80;;;8.90;;
2021;SDS011;1015;49.756;6.994;2022-08-19T12:35:49;8.90;;;8.20;;
2021;SDS011;1015;49.756;6.994;2022-08-19T12:38:16;8.50;;;7.83;;
2021;SDS011;1015;49.756;6.994;2022-08-19T12:40:45;10.63;;;9.73;;
2021;SDS011;1015;49.756;6.994;2022-08-19T12:43:14;10.90;;;9.47;;
2021;SDS011;1015;49.756;6.994;2022-08-19T12:45:41;9.60;;;8.73;;
2021;SDS011;1015;49.756;6.994;2022-08-19T12:48:10;9.87;;;8.97;;
2021;SDS011;1015;49.756;6.994;2022-08-19T12:50:38;9.03;;;8.33;;
2021;SDS011;1015;49.756;6.994;2022-08-19T12:53:06;9.60;;;8.90;;
2021;SDS011;1015;49.756;6.994;2022-08-19T12:55:33;9.43;;;8.60;;
2021;SDS011;1015;49.756;6.994;2022-08-19T12:58:00;10.30;;;8.60;;
2021;SDS011;1015;49.756;6.994;2022-08-19T13:00:29;9.50;;;8.70;;
2021;SDS011;1015;49.756;6.994;2022-08-19T13:02:57;9.60;;;8.67;;
2021;SDS011;1015;49.756;6.994;2022-08-19T13:05:27;9.43;;;8.70;;
2021;SDS011;1015;49.756;6.994;2022-08-19T13:07:57;10.13;;;9.13;;
2021;SDS011;1015;49.756;6.994;2022-08-19T13:10:26;9.87;;;9.07;;
2021;SDS011;1015;49.756;6.994;2022-08-19T13:12:55;8.97;;;8.17;;
2021;SDS011;1015;49.756;6.994;2022-08-19T13:15:24;8.87;;;8.10;;
2021;SDS011;1015;49.756;6.994;2022-08-19T13:17:54;9.33;;;8.43;;
2021;SDS011;1015;49.756;6.994;2022-08-19T13:20:22;9.50;;;8.63;;
2021;SDS011;1015;49.756;6.994;2022-08-19T13:22:49;10.30;;;9.27;;
2021;SDS011;1015;49.756;6.994;2022-08-19T13:25:17;10.03;;;9.20;;
2021;SDS011;1015;49.756;6.994;2022-08-19T13:27:45;10.33;;;9.33;;
2021;SDS011;1015;49.756;6.994;2022-08-19T13:30:13;10.13;;;9.20;;
2021;SDS011;1015;49.756;6.994;2022-08-19T13:33:00;10.10;;;9.20;;
2021;SDS011;1015;49.756;6.994;2022-08-19T13:35:40;9.40;;;8.60;;
2021;SDS011;1015;49.756;6.994;2022-08-19T13:38:08;10.23;;;9.40;;
2021;SDS011;1015;49.756;6.994;2022-08-19T13:40:36;10.27;;;9.33;;
2021;SDS011;1015;49.756;6.994;2022-08-19T13:43:04;10.30;;;9.40;;
2021;SDS011;1015;49.756;6.994;2022-08-19T13:45:32;10.27;;;9.37;;
2021;SDS011;1015;49.756;6.994;2022-08-19T13:48:01;10.30;;;9.40;;
2021;SDS011;1015;49.756;6.994;2022-08-19T13:50:34;10.33;;;9.43;;
2021;SDS011;1015;49.756;6.994;2022-08-19T13:53:05;9.97;;;9.17;;
2021;SDS011;1015;49.756;6.994;2022-08-19T13:55:33;10.40;;;9.50;;
2021;SDS011;1015;49.756;6.994;2022-08-19T13:58:01;9.40;;;8.60;;
2021;SDS011;1015;49.756;6.994;2022-08-19T14:00:29;9.70;;;8.90;;
2021;SDS011;1015;49.756;6.994;2022-08-19T14:02:57;9.80;;;9.00;;
2021;SDS011;1015;49.756;6.994;2022-08-19T14:05:26;9.80;;;9.00;;
2021;SDS011;1015;49.756;6.994;2022-08-19T14:07:55;11.73;;;10.63;;
2021;SDS011;1015;49.756;6.994;2022-08-19T14:10:22;10.77;;;9.77;;
2021;SDS011;1015;49.756;6.994;2022-08-19T14:12:52;10.50;;;9.60;;
2021;SDS011;1015;49.756;6.994;2022-08-19T14:15:20;9.67;;;8.77;;
2021;SDS011;1015;49.756;6.994;2022-08-19T14:17:49;10.63;;;9.70;;
2021;SDS011;1015;49.756;6.994;2022-08-19T14:20:16;10.43;;;9.17;;
2021;SDS011;1015;49.756;6.994;2022-08-19T14:22:45;11.37;;;10.37;;
2021;SDS011;1015;49.756;6.994;2022-08-19T14:25:14;9.10;;;8.30;;
2021;SDS011;1015;49.756;6.994;2022-08-19T14:27:42;9.20;;;8.40;;
2021;SDS011;1015;49.756;6.994;2022-08-19T14:30:10;9.50;;;8.70;;
2021;SDS011;1015;49.756;6.994;2022-08-19T14:32:39;9.77;;;8.97;;
2021;SDS011;1015;49.756;6.994;2022-08-19T14:35:08;10.10;;;9.20;;
2021;SDS011;1015;49.756;6.994;2022-08-19T14:37:37;8.50;;;7.80;;
2021;SDS011;1015;49.756;6.994;2022-08-19T14:40:07;8.23;;;7.53;;
2021;SDS011;1015;49.756;6.994;2022-08-19T14:42:34;8.53;;;7.13;;
2021;SDS011;1015;49.756;6.994;2022-08-19T14:45:01;9.80;;;8.90;;
2021;SDS011;1015;49.756;6.994;2022-08-19T14:47:31;8.50;;;7.73;;
2021;SDS011;1015;49.756;6.994;2022-08-19T14:49:58;8.70;;;7.90;;
2021;SDS011;1015;49.756;6.994;2022-08-19T14:52:25;7.20;;;6.50;;
2021;SDS011;1015;49.756;6.994;2022-08-19T14:54:52;7.63;;;6.93;;
2021;SDS011;1015;49.756;6.994;2022-08-19T14:57:20;7.30;;;6.70;;
2021;SDS011;1015;49.756;6.994;2022-08-19T14:59:47;7.07;;;6.50;;
2021;SDS011;1015;49.756;6.994;2022-08-19T15:02:14;7.30;;;6.70;;